Time;durP1;ratioP1;P1;durP2;ratioP2;P2;SDS_P1;SDS_P2;PMS_P1;PMS_P2;Temp;Humidity;BMP_temperature;BMP_pressure;BME280_temperature;BME280_humidity;BME280_pressure;Samples;Min_cycle;Max_cycle;Signal;HPM_P1;HPM_P2
2021/11/28 00:02:20;;;;;;;;;;;;;;;3.26;73.00;97460.84;4964060;28;19922;-86
2021/11/28 00:04:49;;;;;;;;;;;;;;;3.30;73.00;97458.91;4978728;28;20346;-85
2021/11/28 00:14:47;;;;;;;;;;;;;;;3.33;72.94;97450.06;4965108;28;20354;-85
2021/11/28 00:17:13;;;;;;;;;;;;;;;3.35;73.14;97451.69;4962331;28;19933;-84
2021/11/28 00:19:39;;;;;;;;;;;;;;;3.36;72.84;97447.28;4962635;28;19957;-85
2021/11/28 00:22:05;;;;;;;;;;;;;;;3.38;73.08;97443.69;4959836;28;19922;-85
2021/11/28 00:24:30;;;;;;;;;;;;;;;3.40;72.95;97454.91;4963811;28;19986;-85
2021/11/28 00:26:56;;;;;;;;;;;;;;;3.42;73.01;97453.06;4962318;28;19926;-85
2021/11/28 00:29:21;;;;;;;;;;;;;;;3.44;72.95;97453.81;4961722;28;20366;-85
2021/11/28 00:31:46;;;;;;;;;;;;;;;3.42;72.92;97450.44;4963257;28;19962;-85
2021/11/28 00:34:12;;;;;;;;;;;;;;;3.45;72.81;97454.69;4962451;28;19914;-85
2021/11/28 00:36:37;;;;;;;;;;;;;;;3.46;73.03;97453.72;4963028;28;19966;-86
2021/11/28 00:39:03;;;;;;;;;;;;;;;3.45;72.87;97452.91;4963536;28;19925;-85
2021/11/28 00:41:28;;;;;;;;;;;;;;;3.45;72.84;97452.91;4963129;28;19926;-85
2021/11/28 00:43:54;;;;;;;;;;;;;;;3.48;72.75;97454.53;4963350;28;19930;-86
2021/11/28 00:46:19;;;;;;;;;;;;;;;3.51;72.78;97453.50;4960138;28;20418;-85
2021/11/28 00:48:45;;;;;;;;;;;;;;;3.50;72.74;97447.44;4962526;28;20289;-85
2021/11/28 00:51:56;;;;;;;;;;;;;;;3.53;73.03;97455.13;4963743;28;19926;-85
2021/11/28 00:53:57;;;;;;;;;;;;;;;3.72;74.37;97455.03;4961180;28;20009;-85
2021/11/28 00:56:23;;;;;;;;;;;;;;;3.89;76.24;97450.66;4961582;28;20025;-86
2021/11/28 00:58:49;;;;;;;;;;;;;;;4.01;78.26;97450.00;4962029;28;19922;-86
2021/11/28 01:01:16;;;;;;;;;;;;;;;4.07;79.74;97449.69;4960663;28;19934;-85
2021/11/28 01:03:41;;;;;;;;;;;;;;;4.10;81.12;97449.53;4962251;28;19926;-85
2021/11/28 01:06:07;;;;;;;;;;;;;;;4.10;82.33;97451.28;4961624;28;19988;-86
2021/11/28 01:08:32;;;;;;;;;;;;;;;4.08;83.28;97451.38;4961512;28;19926;-85
2021/11/28 01:10:58;;;;;;;;;;;;;;;4.06;84.37;97455.84;4962716;28;19918;-85
2021/11/28 01:13:23;;;;;;;;;;;;;;;4.02;85.21;97451.72;4963091;28;19929;-86
2021/11/28 01:15:48;;;;;;;;;;;;;;;3.95;85.99;97459.03;4963223;28;19929;-85
2021/11/28 01:18:13;;;;;;;;;;;;;;;3.92;86.89;97474.09;4962365;28;19926;-85
2021/11/28 01:20:39;;;;;;;;;;;;;;;3.89;87.68;97466.38;4964056;28;19918;-86
2021/11/28 01:23:04;;;;;;;;;;;;;;;3.86;88.12;97464.78;4959957;28;20286;-85
2021/11/28 01:25:29;;;;;;;;;;;;;;;3.82;88.94;97468.47;4963372;28;20624;-86
2021/11/28 01:27:55;;;;;;;;;;;;;;;3.75;89.91;97481.06;4962296;28;19923;-87
2021/11/28 01:30:20;;;;;;;;;;;;;;;3.77;91.25;97478.38;4961579;28;20142;-85
2021/11/28 01:32:46;;;;;;;;;;;;;;;3.77;92.78;97479.19;4962265;28;19974;-85
2021/11/28 01:35:14;;;;;;;;;;;;;;;3.81;94.87;97488.59;4962661;28;19926;-86
2021/11/28 01:37:40;;;;;;;;;;;;;;;3.99;97.55;97489.41;4961056;28;19919;-86
2021/11/28 01:40:07;;;;;;;;;;;;;;;4.24;100.00;97487.25;4963399;28;20017;-86
2021/11/28 01:42:34;;;;;;;;;;;;;;;4.40;100.00;97484.66;4970117;28;19926;-85
2021/11/28 01:45:00;;;;;;;;;;;;;;;4.53;100.00;97491.78;4962260;28;19964;-86
2021/11/28 01:47:25;;;;;;;;;;;;;;;4.66;100.00;97472.72;4962738;28;19922;-86
2021/11/28 01:49:50;;;;;;;;;;;;;;;4.71;100.00;97476.78;4962428;28;19923;-86
2021/11/28 01:52:16;;;;;;;;;;;;;;;4.81;100.00;97482.34;4962157;28;19929;-85
2021/11/28 01:54:41;;;;;;;;;;;;;;;4.84;100.00;97479.56;4963193;28;19926;-85
2021/11/28 01:57:06;;;;;;;;;;;;;;;4.97;100.00;97476.25;4968636;28;20489;-86
2021/11/28 01:59:31;;;;;;;;;;;;;;;4.99;100.00;97479.63;4970014;28;19968;-86
2021/11/28 02:01:57;;;;;;;;;;;;;;;5.06;100.00;97483.59;4968921;28;19960;-85
2021/11/28 04:12:43;;;;;;;;;;;;;;;2.10;95.15;97511.69;5734561;23;19935;-85
2021/11/28 04:15:08;;;;;;;;;;;;;;;2.62;97.78;97504.06;4981956;28;19950;-85
2021/11/28 04:17:34;;;;;;;;;;;;;;;2.71;99.36;97498.41;4967053;28;20404;-85
2021/11/28 04:19:59;;;;;;;;;;;;;;;2.81;100.00;97497.94;4999011;28;19922;-84
2021/11/28 04:22:25;;;;;;;;;;;;;;;2.79;100.00;97499.78;4983619;28;20376;-85
2021/11/28 04:24:50;;;;;;;;;;;;;;;2.88;100.00;97500.19;4966878;28;20295;-85
2021/11/28 04:27:16;;;;;;;;;;;;;;;2.82;100.00;97494.41;4981701;28;19991;-85
2021/11/28 04:29:41;;;;;;;;;;;;;;;2.88;100.00;97496.75;4966563;28;19925;-84
2021/11/28 04:32:07;;;;;;;;;;;;;;;2.89;100.00;97499.28;4966839;28;20293;-83
2021/11/28 04:34:32;;;;;;;;;;;;;;;2.93;100.00;97502.59;4998975;28;19964;-84
2021/11/28 04:36:57;;;;;;;;;;;;;;;2.92;100.00;97500.91;4984230;28;19929;-85
2021/11/28 04:39:23;;;;;;;;;;;;;;;2.96;100.00;97502.44;4983847;28;19918;-84
2021/11/28 04:41:48;;;;;;;;;;;;;;;2.94;100.00;97499.06;4982442;28;20365;-84
2021/11/28 04:44:14;;;;;;;;;;;;;;;2.90;100.00;97500.13;4965484;28;19922;-85
2021/11/28 04:46:39;;;;;;;;;;;;;;;2.95;100.00;97503.34;4983506;28;19929;-83
2021/11/28 04:49:05;;;;;;;;;;;;;;;2.92;100.00;97495.69;4984317;28;19925;-85
2021/11/28 04:51:30;;;;;;;;;;;;;;;2.89;99.21;97507.13;4998633;28;19927;-85
2021/11/28 04:53:56;;;;;;;;;;;;;;;2.92;98.17;97495.69;4966463;28;19964;-85
2021/11/28 04:56:21;;;;;;;;;;;;;;;2.91;97.02;97501.81;4966556;28;20280;-85
2021/11/28 04:58:46;;;;;;;;;;;;;;;2.90;95.97;97505.34;4964748;28;20346;-84
2021/11/28 05:01:12;;;;;;;;;;;;;;;2.88;95.13;97496.75;4965834;28;19918;-85
2021/11/28 05:03:37;;;;;;;;;;;;;;;2.88;94.18;97501.97;4966340;28;20009;-82
2021/11/28 05:06:02;;;;;;;;;;;;;;;2.89;93.63;97498.44;4966243;28;20021;-86
2021/11/28 05:08:28;;;;;;;;;;;;;;;2.88;92.80;97499.34;4983266;28;20254;-84
2021/11/28 05:10:53;;;;;;;;;;;;;;;2.79;92.00;97499.78;4982082;28;19922;-83
2021/11/28 05:13:18;;;;;;;;;;;;;;;2.80;91.56;97501.50;4964328;28;19922;-85
2021/11/28 05:15:43;;;;;;;;;;;;;;;2.79;90.90;97510.25;4983086;28;20313;-85
2021/11/28 05:18:09;;;;;;;;;;;;;;;2.77;90.35;97507.72;4983451;28;20369;-84
2021/11/28 05:20:34;;;;;;;;;;;;;;;2.75;90.04;97506.09;4983433;28;20577;-85
2021/11/28 05:22:59;;;;;;;;;;;;;;;2.69;89.80;97510.69;4958811;28;20072;-84
2021/11/28 05:25:24;;;;;;;;;;;;;;;2.75;89.54;97519.19;4965849;28;20053;-84
2021/11/28 05:27:50;;;;;;;;;;;;;;;2.75;89.49;97513.94;4996444;28;19930;-84
2021/11/28 05:30:15;;;;;;;;;;;;;;;2.73;90.15;97508.78;4997079;28;19922;-85
2021/11/28 05:32:41;;;;;;;;;;;;;;;2.74;90.51;97513.09;4983402;28;19924;-85
2021/11/28 05:35:06;;;;;;;;;;;;;;;2.84;91.87;97518.72;4982890;28;19953;-86
2021/11/28 05:37:32;;;;;;;;;;;;;;;3.06;95.19;97514.19;4982827;28;19928;-85
2021/11/28 05:39:58;;;;;;;;;;;;;;;3.26;98.47;97520.19;4965429;28;19992;-84
2021/11/28 05:42:23;;;;;;;;;;;;;;;3.28;99.13;97518.34;4964379;28;19922;-84
2021/11/28 05:44:48;;;;;;;;;;;;;;;3.23;98.78;97525.59;4998044;28;19918;-84
2021/11/28 05:47:14;;;;;;;;;;;;;;;3.15;98.33;97514.66;4997619;28;19930;-84
2021/11/28 05:49:39;;;;;;;;;;;;;;;3.04;97.97;97521.22;4982578;28;19918;-84
2021/11/28 05:52:04;;;;;;;;;;;;;;;3.05;98.01;97512.47;4982882;28;20496;-84
2021/11/28 05:54:30;;;;;;;;;;;;;;;3.05;97.75;97512.47;4981319;28;19922;-84
2021/11/28 05:56:55;;;;;;;;;;;;;;;3.03;97.72;97514.31;4981401;28;19989;-84
2021/11/28 05:59:20;;;;;;;;;;;;;;;2.98;97.06;97507.59;4983162;28;19968;-84
2021/11/28 06:01:46;;;;;;;;;;;;;;;2.91;96.69;97514.91;4965583;28;19968;-84
2021/11/28 06:04:11;;;;;;;;;;;;;;;2.91;95.88;97509.69;4965314;28;20273;-84
2021/11/28 06:06:36;;;;;;;;;;;;;;;2.86;95.49;97514.28;4982684;28;19914;-84
2021/11/28 06:09:02;;;;;;;;;;;;;;;2.81;95.21;97513.63;4982769;28;19918;-84
2021/11/28 06:11:27;;;;;;;;;;;;;;;2.75;94.83;97511.34;4965320;28;20384;-84
2021/11/28 06:13:52;;;;;;;;;;;;;;;2.67;94.26;97512.53;4981204;28;19929;-84
2021/11/28 06:16:18;;;;;;;;;;;;;;;2.68;93.98;97514.25;4997556;28;19922;-84
2021/11/28 06:18:44;;;;;;;;;;;;;;;2.67;93.80;97517.75;4980175;28;19914;-84
2021/11/28 06:21:09;;;;;;;;;;;;;;;2.66;93.59;97526.50;4998119;28;20376;-84
2021/11/28 06:23:34;;;;;;;;;;;;;;;2.65;93.38;97524.84;4997290;28;20370;-84
2021/11/28 06:26:00;;;;;;;;;;;;;;;2.68;92.85;97523.81;4964881;28;20395;-84
2021/11/28 06:28:25;;;;;;;;;;;;;;;2.61;92.21;97528.50;4981507;28;19929;-84
2021/11/28 06:30:50;;;;;;;;;;;;;;;2.61;91.87;97523.28;4982692;28;19923;-84
2021/11/28 06:33:16;;;;;;;;;;;;;;;2.60;91.47;97531.19;4982256;28;20021;-84
2021/11/28 06:35:41;;;;;;;;;;;;;;;2.64;90.95;97533.59;4982277;28;19969;-84
2021/11/28 06:38:07;;;;;;;;;;;;;;;2.62;90.59;97529.38;4964701;28;20387;-84
2021/11/28 06:40:32;;;;;;;;;;;;;;;2.63;90.00;97537.16;4966147;28;19918;-84
2021/11/28 06:42:57;;;;;;;;;;;;;;;2.59;89.82;97534.75;4985153;28;19922;-84
2021/11/28 06:45:23;;;;;;;;;;;;;;;2.56;89.64;97530.50;4986090;28;20425;-84
2021/11/28 06:47:48;;;;;;;;;;;;;;;2.58;89.49;97536.50;4968498;28;19918;-84
2021/11/28 06:50:14;;;;;;;;;;;;;;;2.55;88.95;97539.25;4980068;28;19968;-84
2021/11/28 06:52:39;;;;;;;;;;;;;;;2.52;88.85;97534.16;4986297;28;19926;-84
2021/11/28 06:55:05;;;;;;;;;;;;;;;2.53;88.51;97535.88;4986098;28;19918;-84
2021/11/28 06:57:30;;;;;;;;;;;;;;;2.55;88.18;97534.00;4984297;28;19973;-84
2021/11/28 06:59:55;;;;;;;;;;;;;;;2.54;87.78;97542.78;4976775;28;20341;-84
2021/11/28 07:02:21;;;;;;;;;;;;;;;2.55;87.73;97539.25;4986037;28;19928;-84
2021/11/28 07:04:46;;;;;;;;;;;;;;;2.48;87.39;97538.69;4968394;28;20373;-84
2021/11/28 07:07:11;;;;;;;;;;;;;;;2.50;87.28;97536.84;4985573;28;20392;-84
2021/11/28 07:09:36;;;;;;;;;;;;;;;2.47;87.17;97541.38;4986041;28;19918;-84
2021/11/28 07:12:02;;;;;;;;;;;;;;;2.50;86.91;97541.22;4967095;28;20020;-84
2021/11/28 07:14:27;;;;;;;;;;;;;;;2.51;86.81;97538.53;4963759;28;20450;-84
2021/11/28 07:16:52;;;;;;;;;;;;;;;2.51;86.50;97542.94;4966427;28;19922;-84
2021/11/28 07:19:18;;;;;;;;;;;;;;;2.51;86.08;97540.31;4966650;28;20029;-84
2021/11/28 07:21:43;;;;;;;;;;;;;;;2.49;86.00;97540.38;4966442;28;19918;-84
2021/11/28 07:24:09;;;;;;;;;;;;;;;2.50;85.91;97538.63;4964631;28;20030;-84
2021/11/28 07:26:34;;;;;;;;;;;;;;;2.49;85.78;97542.13;4963824;28;19925;-84
2021/11/28 07:28:59;;;;;;;;;;;;;;;2.48;85.46;97549.13;4964668;28;19941;-84
2021/11/28 07:31:24;;;;;;;;;;;;;;;2.50;85.13;97546.47;4966366;28;19922;-84
2021/11/28 07:33:50;;;;;;;;;;;;;;;2.46;84.85;97550.97;4964578;28;20377;-84
2021/11/28 07:36:15;;;;;;;;;;;;;;;2.45;84.71;97551.88;4959861;28;19922;-84
2021/11/28 07:38:40;;;;;;;;;;;;;;;2.41;84.50;97546.88;4966396;28;20153;-84
2021/11/28 07:41:06;;;;;;;;;;;;;;;2.42;84.60;97548.56;4964811;28;20293;-84
2021/11/28 07:43:31;;;;;;;;;;;;;;;2.41;84.36;97559.94;4964117;28;19929;-84
2021/11/28 07:45:57;;;;;;;;;;;;;;;2.40;84.17;97561.72;4965789;28;19918;-84
2021/11/28 07:48:22;;;;;;;;;;;;;;;2.43;83.94;97566.81;4964125;28;19923;-84
2021/11/28 07:50:49;;;;;;;;;;;;;;;2.39;83.89;97560.00;4964363;28;19918;-84
2021/11/28 07:53:15;;;;;;;;;;;;;;;2.39;83.49;97559.16;4963899;28;19958;-83
2021/11/28 07:55:40;;;;;;;;;;;;;;;2.38;83.34;97565.31;4963426;28;19918;-84
2021/11/28 07:58:05;;;;;;;;;;;;;;;2.38;83.07;97562.69;4964264;28;19928;-84
2021/11/28 08:00:31;;;;;;;;;;;;;;;2.38;82.85;97557.47;4964232;28;20421;-84
2021/11/28 08:02:56;;;;;;;;;;;;;;;2.39;82.75;97567.84;4965397;28;19965;-84
2021/11/28 08:05:22;;;;;;;;;;;;;;;2.40;82.58;97566.09;4964305;28;19922;-84
2021/11/28 08:07:47;;;;;;;;;;;;;;;2.36;82.31;97576.69;4965215;28;20001;-84
2021/11/28 08:10:12;;;;;;;;;;;;;;;2.42;82.26;97577.34;4965575;28;19918;-84
2021/11/28 08:12:38;;;;;;;;;;;;;;;2.41;81.99;97573.88;4964169;28;19973;-84
2021/11/28 08:15:05;;;;;;;;;;;;;;;2.37;81.85;97582.75;4982319;28;19929;-84
2021/11/28 08:17:34;;;;;;;;;;;;;;;2.40;81.80;97579.19;4985004;28;20307;-84
2021/11/28 08:19:59;;;;;;;;;;;;;;;2.41;81.60;97586.94;4984339;28;19918;-84
2021/11/28 08:22:24;;;;;;;;;;;;;;;2.40;81.48;97592.25;4999097;28;20347;-84
2021/11/28 08:24:50;;;;;;;;;;;;;;;2.42;81.56;97596.47;4984563;28;19921;-84
2021/11/28 08:27:16;;;;;;;;;;;;;;;2.45;81.35;97590.25;4983230;28;20124;-84
2021/11/28 08:29:41;;;;;;;;;;;;;;;2.45;81.20;97590.25;4984213;28;19925;-84
2021/11/28 08:32:07;;;;;;;;;;;;;;;2.47;81.08;97591.03;4984442;28;19922;-84
2021/11/28 08:34:32;;;;;;;;;;;;;;;2.48;80.96;97590.13;4966698;28;19925;-84
2021/11/28 08:36:57;;;;;;;;;;;;;;;2.49;80.85;97594.41;4984032;28;19949;-84
2021/11/28 08:39:22;;;;;;;;;;;;;;;2.49;80.82;97594.41;4984179;28;20024;-84
2021/11/28 08:41:48;;;;;;;;;;;;;;;2.49;80.63;97597.03;4983231;28;20111;-84
2021/11/28 08:44:13;;;;;;;;;;;;;;;2.54;80.60;97595.09;4984063;28;20392;-84
2021/11/28 08:46:38;;;;;;;;;;;;;;;2.54;80.54;97595.09;4983863;28;19918;-84
2021/11/28 08:49:04;;;;;;;;;;;;;;;2.56;80.29;97598.47;4966782;28;20258;-84
2021/11/28 08:51:30;;;;;;;;;;;;;;;2.56;80.14;97608.94;4984112;28;19929;-84
2021/11/28 08:53:56;;;;;;;;;;;;;;;2.57;79.93;97610.63;4983751;28;19924;-84
2021/11/28 08:56:23;;;;;;;;;;;;;;;2.60;79.87;97607.88;4983622;28;20021;-85
2021/11/28 08:58:48;;;;;;;;;;;;;;;2.59;79.83;97613.19;4982606;28;20408;-85
2021/11/28 09:01:13;;;;;;;;;;;;;;;2.57;79.77;97612.38;4966363;28;20012;-85
2021/11/28 09:03:39;;;;;;;;;;;;;;;2.61;79.76;97614.78;4982831;28;19922;-84
2021/11/28 09:06:04;;;;;;;;;;;;;;;2.61;79.61;97600.88;4983398;28;19997;-85
2021/11/28 09:08:29;;;;;;;;;;;;;;;2.61;79.38;97599.09;4983709;28;20072;-84
2021/11/28 09:10:55;;;;;;;;;;;;;;;2.65;79.28;97607.66;4983427;28;20009;-85
2021/11/28 09:13:20;;;;;;;;;;;;;;;2.65;79.13;97602.41;4982000;28;20378;-84
2021/11/28 09:15:46;;;;;;;;;;;;;;;2.67;79.20;97606.66;4983808;28;20013;-85
2021/11/28 09:18:15;;;;;;;;;;;;;;;2.66;78.93;97610.19;4983608;28;19918;-84
2021/11/28 09:20:44;;;;;;;;;;;;;;;2.70;78.99;97610.94;4982808;28;19962;-84
2021/11/28 09:25:35;;;;;;;;;;;;;;;2.74;78.74;97617.69;4983033;28;19921;-84
2021/11/28 09:28:01;;;;;;;;;;;;;;;2.75;78.68;97621.19;4982131;28;19957;-84
2021/11/28 09:30:28;;;;;;;;;;;;;;;2.74;78.40;97620.31;4983030;28;19925;-84
2021/11/28 09:32:54;;;;;;;;;;;;;;;2.77;78.48;97621.94;4965658;28;19926;-84
2021/11/28 09:35:20;;;;;;;;;;;;;;;2.78;78.34;97621.03;4983370;28;20386;-84
2021/11/28 09:37:45;;;;;;;;;;;;;;;2.82;78.50;97625.19;4981867;28;20326;-84
2021/11/28 09:40:11;;;;;;;;;;;;;;;2.83;78.20;97619.06;4982604;28;20362;-84
2021/11/28 09:42:38;;;;;;;;;;;;;;;2.87;78.21;97617.97;4981779;28;20384;-84
2021/11/28 09:45:04;;;;;;;;;;;;;;;2.87;78.03;97621.47;4983264;28;19922;-85
2021/11/28 09:47:30;;;;;;;;;;;;;;;2.88;77.90;97625.75;4982066;28;19925;-84
2021/11/28 09:49:56;;;;;;;;;;;;;;;2.90;77.92;97625.69;4982807;28;19918;-84
2021/11/28 09:52:24;;;;;;;;;;;;;;;2.91;77.84;97614.31;4982689;28;19945;-84
2021/11/28 09:54:51;;;;;;;;;;;;;;;2.93;77.96;97620.31;4983271;28;20004;-84
2021/11/28 09:57:19;;;;;;;;;;;;;;;2.92;77.65;97616.03;4981719;28;20056;-84
2021/11/28 09:59:45;;;;;;;;;;;;;;;2.95;77.80;97625.47;4982862;28;19918;-85
2021/11/28 10:02:16;;;;;;;;;;;;;;;2.97;77.69;97627.13;4981736;28;19922;-84
2021/11/28 10:04:41;;;;;;;;;;;;;;;3.00;77.81;97626.09;4981891;28;19922;-84
2021/11/28 10:07:06;;;;;;;;;;;;;;;3.02;77.85;97626.91;4982605;28;19921;-84
2021/11/28 10:09:31;;;;;;;;;;;;;;;3.01;77.68;97623.41;4965751;28;19922;-84
2021/11/28 10:12:13;;;;;;;;;;;;;;;3.03;77.74;97624.22;4964331;28;19922;-84
2021/11/28 10:14:38;;;;;;;;;;;;;;;3.06;77.76;97624.06;4982618;28;19969;-84
2021/11/28 10:17:03;;;;;;;;;;;;;;;3.06;77.93;97624.06;4986174;28;19926;-84
2021/11/28 10:19:32;;;;;;;;;;;;;;;3.08;77.80;97614.38;4986698;28;20001;-84
2021/11/28 10:21:57;;;;;;;;;;;;;;;3.09;77.83;97615.22;4986694;28;19947;-84
2021/11/28 10:24:22;;;;;;;;;;;;;;;3.10;77.70;97614.31;4986336;28;19983;-84
2021/11/28 10:26:53;;;;;;;;;;;;;;;3.14;77.76;97615.84;4985413;28;20316;-84
2021/11/28 10:29:19;;;;;;;;;;;;;;;3.16;77.57;97608.78;4986446;28;19941;-84
2021/11/28 10:31:51;;;;;;;;;;;;;;;3.18;77.50;97617.41;4986025;28;20362;-84
2021/11/28 10:34:27;;;;;;;;;;;;;;;3.19;77.52;97615.63;4969073;28;20419;-84
2021/11/28 10:37:01;;;;;;;;;;;;;;;3.24;77.54;97611.03;4986774;28;19925;-84
2021/11/28 10:39:26;;;;;;;;;;;;;;;3.25;77.40;97607.47;4985708;28;19922;-84
2021/11/28 10:41:54;;;;;;;;;;;;;;;3.27;77.45;97610.88;4985275;28;20396;-84
2021/11/28 10:44:20;;;;;;;;;;;;;;;3.28;77.50;97608.19;4986234;28;20381;-84
2021/11/28 10:46:46;;;;;;;;;;;;;;;3.31;77.74;97617.66;4985938;28;20365;-84
2021/11/28 10:49:16;;;;;;;;;;;;;;;3.32;77.58;97614.13;4985974;28;19918;-84
2021/11/28 10:51:44;;;;;;;;;;;;;;;3.33;77.53;97617.59;4986397;28;20009;-84
2021/11/28 10:54:28;;;;;;;;;;;;;;;3.32;77.49;97616.75;4985887;28;19918;-84
2021/11/28 10:57:01;;;;;;;;;;;;;;;3.32;77.48;97616.75;4999823;28;19969;-84
2021/11/28 10:59:27;;;;;;;;;;;;;;;3.34;77.48;97616.69;4985325;28;20013;-84
2021/11/28 11:01:53;;;;;;;;;;;;;;;3.35;77.50;97608.75;4985873;28;20042;-84
2021/11/28 11:04:19;;;;;;;;;;;;;;;3.37;77.58;97606.91;4986022;28;19925;-85
2021/11/28 11:06:44;;;;;;;;;;;;;;;3.39;77.49;97615.53;4985640;28;20457;-83
2021/11/28 11:09:18;;;;;;;;;;;;;;;3.37;77.37;97606.06;4985591;28;20226;-84
2021/11/28 11:11:43;;;;;;;;;;;;;;;3.42;77.38;97615.38;4984136;28;19930;-84
2021/11/28 11:14:11;;;;;;;;;;;;;;;3.44;77.54;97610.06;4984918;28;21241;-84
2021/11/28 11:16:44;;;;;;;;;;;;;;;3.43;77.42;97610.97;4985550;28;19922;-84
2021/11/28 11:19:28;;;;;;;;;;;;;;;3.45;77.65;97615.22;4984981;28;19933;-84
2021/11/28 11:22:06;;;;;;;;;;;;;;;3.45;77.74;97610.00;4985750;28;19925;-84
2021/11/28 11:24:33;;;;;;;;;;;;;;;3.48;77.82;97614.25;4985045;28;19921;-84
2021/11/28 11:27:08;;;;;;;;;;;;;;;3.50;77.91;97616.78;4966029;28;19922;-84
2021/11/28 11:29:33;;;;;;;;;;;;;;;3.50;77.85;97616.78;4975951;28;19918;-84
2021/11/28 11:31:58;;;;;;;;;;;;;;;3.53;77.98;97616.66;4975797;28;19976;-84
2021/11/28 11:34:28;;;;;;;;;;;;;;;3.54;78.04;97608.72;4985340;28;20334;-84
2021/11/28 11:36:56;;;;;;;;;;;;;;;3.56;77.99;97612.09;4967643;28;19918;-84
2021/11/28 11:39:23;;;;;;;;;;;;;;;3.57;78.19;97607.69;4967870;28;19918;-84
2021/11/28 11:41:48;;;;;;;;;;;;;;;3.58;78.03;97614.63;4997806;28;19918;-83
2021/11/28 11:44:16;;;;;;;;;;;;;;;3.57;78.21;97616.38;4967874;28;19927;-84
2021/11/28 11:46:45;;;;;;;;;;;;;;;3.60;78.36;97620.63;4985319;28;19914;-84
2021/11/28 11:49:11;;;;;;;;;;;;;;;3.64;78.33;97627.44;4984523;28;19926;-84
2021/11/28 11:51:36;;;;;;;;;;;;;;;3.64;78.51;97619.56;4985386;28;20425;-84
2021/11/28 11:54:04;;;;;;;;;;;;;;;3.66;78.61;97619.50;4985128;28;20016;-84
2021/11/28 11:56:30;;;;;;;;;;;;;;;3.65;78.61;97626.50;4984048;28;19925;-84
2021/11/28 11:59:05;;;;;;;;;;;;;;;3.67;78.66;97623.81;4983719;28;19926;-83
2021/11/28 12:01:31;;;;;;;;;;;;;;;3.68;78.65;97631.59;4984110;28;19972;-84
2021/11/28 12:03:56;;;;;;;;;;;;;;;3.70;78.67;97634.13;4984935;28;19925;-84
2021/11/28 12:06:40;;;;;;;;;;;;;;;3.70;78.58;97632.38;4985100;28;20452;-84
2021/11/28 12:09:21;;;;;;;;;;;;;;;3.71;78.52;97628.81;4984647;28;19917;-83
2021/11/28 12:11:53;;;;;;;;;;;;;;;3.73;78.66;97632.19;4983363;28;19918;-84
2021/11/28 12:14:18;;;;;;;;;;;;;;;3.74;78.60;97633.06;4984394;28;20390;-84
2021/11/28 12:16:43;;;;;;;;;;;;;;;3.74;78.67;97628.66;4999265;28;19918;-84
2021/11/28 12:19:09;;;;;;;;;;;;;;;3.77;78.66;97630.31;4984851;28;19993;-84
2021/11/28 12:21:36;;;;;;;;;;;;;;;3.76;78.55;97629.44;4967261;28;19924;-84
2021/11/28 12:24:17;;;;;;;;;;;;;;;3.77;78.63;97631.13;4983574;28;20373;-85
2021/11/28 12:26:52;;;;;;;;;;;;;;;3.79;78.69;97626.66;4982722;28;19914;-84
2021/11/28 12:29:17;;;;;;;;;;;;;;;3.80;78.68;97630.97;4984052;28;19918;-84
2021/11/28 12:31:56;;;;;;;;;;;;;;;3.82;78.81;97626.50;4983949;28;19921;-83
2021/11/28 12:34:26;;;;;;;;;;;;;;;3.85;78.72;97628.13;4984065;28;19918;-84
2021/11/28 12:36:58;;;;;;;;;;;;;;;3.87;78.92;97626.28;4982958;28;19981;-84
2021/11/28 12:39:24;;;;;;;;;;;;;;;3.89;78.92;97628.81;4973700;28;20388;-84
2021/11/28 12:42:08;;;;;;;;;;;;;;;3.88;79.10;97622.75;4973577;28;20405;-84
2021/11/28 12:44:37;;;;;;;;;;;;;;;3.90;79.17;97630.53;4983855;28;19918;-84
2021/11/28 12:47:02;;;;;;;;;;;;;;;3.92;79.35;97623.44;4974370;28;19922;-84
2021/11/28 12:49:27;;;;;;;;;;;;;;;3.95;79.32;97631.97;4974574;28;20395;-85
2021/11/28 12:51:54;;;;;;;;;;;;;;;4.12;79.96;97625.06;4973439;28;19988;-84
2021/11/28 12:54:24;;;;;;;;;;;;;;;4.29;80.97;97626.78;4966376;28;19942;-84
2021/11/28 12:57:09;;;;;;;;;;;;;;;4.39;82.35;97624.53;4965027;28;20369;-84
2021/11/28 12:59:35;;;;;;;;;;;;;;;4.46;83.80;97629.38;4983386;28;19928;-84
2021/11/28 13:02:01;;;;;;;;;;;;;;;4.48;84.82;97626.69;4983651;28;20005;-85
2021/11/28 13:04:38;;;;;;;;;;;;;;;4.47;85.70;97636.34;4983585;28;19989;-84
2021/11/28 13:07:22;;;;;;;;;;;;;;;4.46;86.55;97634.63;4983384;28;20012;-84
2021/11/28 13:09:48;;;;;;;;;;;;;;;4.45;87.11;97632.97;4983341;28;19922;-84
2021/11/28 13:12:14;;;;;;;;;;;;;;;4.39;87.55;97638.53;4982614;28;19924;-85
2021/11/28 13:14:43;;;;;;;;;;;;;;;4.33;88.04;97633.59;4962997;28;19926;-84
2021/11/28 13:17:09;;;;;;;;;;;;;;;4.26;88.52;97645.31;4963950;28;19919;-84
2021/11/28 13:19:35;;;;;;;;;;;;;;;4.11;88.83;97637.28;4963073;28;20263;-84
2021/11/28 13:22:01;;;;;;;;;;;;;;;4.03;89.50;97639.47;4963927;28;20267;-84
2021/11/28 13:24:27;;;;;;;;;;;;;;;3.98;90.42;97641.47;4964471;28;19929;-85
2021/11/28 13:26:54;;;;;;;;;;;;;;;4.00;91.26;97644.84;4962424;28;19925;-85
2021/11/28 13:29:20;;;;;;;;;;;;;;;4.02;92.42;97648.28;4964053;28;20381;-84
2021/11/28 13:31:45;;;;;;;;;;;;;;;4.01;94.22;97649.19;4963522;28;19918;-85
2021/11/28 13:34:11;;;;;;;;;;;;;;;4.11;96.25;97650.41;4963822;28;20029;-85
2021/11/28 13:36:44;;;;;;;;;;;;;;;4.23;98.60;97650.69;4962992;28;20294;-85
2021/11/28 13:39:14;;;;;;;;;;;;;;;4.47;100.00;97657.31;4963158;28;19923;-85
2021/11/28 13:41:39;;;;;;;;;;;;;;;4.61;100.00;97653.97;4962509;28;19923;-85
2021/11/28 13:44:07;;;;;;;;;;;;;;;4.72;100.00;97651.63;4963274;28;20029;-85
2021/11/28 13:46:34;;;;;;;;;;;;;;;4.82;100.00;97657.25;4963713;28;19922;-85
2021/11/28 13:49:00;;;;;;;;;;;;;;;4.91;100.00;97661.13;4961935;28;19922;-85
2021/11/28 13:51:42;;;;;;;;;;;;;;;4.98;100.00;97657.25;4961014;28;19973;-85
2021/11/28 13:54:08;;;;;;;;;;;;;;;5.06;100.00;97659.47;4962914;28;20354;-85
2021/11/28 13:56:50;;;;;;;;;;;;;;;5.12;100.00;97659.13;4963569;28;20352;-85
2021/11/28 13:59:19;;;;;;;;;;;;;;;5.13;100.00;97657.38;4961839;28;19914;-85
2021/11/28 14:01:45;;;;;;;;;;;;;;;5.18;100.00;97658.78;4970125;28;19919;-85
2021/11/28 14:04:20;;;;;;;;;;;;;;;5.24;100.00;97655.00;4963245;28;19924;-85
2021/11/28 14:06:45;;;;;;;;;;;;;;;5.24;100.00;97660.25;4961928;28;19960;-85
2021/11/28 14:09:11;;;;;;;;;;;;;;;5.26;100.00;97661.88;4963317;28;19965;-85
2021/11/28 14:11:40;;;;;;;;;;;;;;;5.32;100.00;97668.53;4963004;28;19973;-85
2021/11/28 14:14:09;;;;;;;;;;;;;;;5.34;100.00;97671.09;4972732;28;19922;-83
2021/11/28 14:16:34;;;;;;;;;;;;;;;5.37;100.00;97673.53;4997348;28;19958;-85
2021/11/28 14:18:59;;;;;;;;;;;;;;;5.41;100.00;97669.81;4983106;28;20381;-85
2021/11/28 14:21:39;;;;;;;;;;;;;;;5.45;100.00;97673.97;4982733;28;19973;-85
2021/11/28 14:24:23;;;;;;;;;;;;;;;5.49;100.00;97675.50;4982530;28;19922;-85
2021/11/28 14:26:50;;;;;;;;;;;;;;;5.29;100.00;97681.84;4981340;28;19918;-86
2021/11/28 14:29:25;;;;;;;;;;;;;;;4.49;100.00;97680.84;4982493;28;19926;-85
2021/11/28 14:31:54;;;;;;;;;;;;;;;4.12;100.00;97677.47;4981226;28;19925;-86
2021/11/28 14:34:22;;;;;;;;;;;;;;;4.00;100.00;97679.78;4982518;28;19925;-84
2021/11/28 14:36:48;;;;;;;;;;;;;;;3.85;100.00;97679.69;4973058;28;20301;-85
2021/11/28 14:39:13;;;;;;;;;;;;;;;3.77;100.00;97682.69;4982547;28;19922;-85
2021/11/28 14:41:43;;;;;;;;;;;;;;;3.75;99.65;97681.91;4981576;28;19919;-85
2021/11/28 14:44:15;;;;;;;;;;;;;;;3.67;98.25;97687.53;4972765;28;19964;-86
2021/11/28 14:46:41;;;;;;;;;;;;;;;3.61;96.90;97687.81;4982166;28;19969;-85
2021/11/28 14:49:07;;;;;;;;;;;;;;;3.59;95.62;97687.03;4997271;28;19921;-85
2021/11/28 14:51:34;;;;;;;;;;;;;;;3.47;94.61;97687.63;4981417;28;19924;-85
2021/11/28 14:54:05;;;;;;;;;;;;;;;3.42;93.46;97686.06;4982229;28;19914;-85
2021/11/28 14:56:31;;;;;;;;;;;;;;;3.39;92.46;97682.75;4982384;28;19918;-84
2021/11/28 14:58:56;;;;;;;;;;;;;;;3.37;91.65;97685.44;4971292;28;19914;-86
2021/11/28 15:01:23;;;;;;;;;;;;;;;3.32;91.03;97692.66;4982860;28;20270;-85
2021/11/28 15:04:06;;;;;;;;;;;;;;;3.26;90.33;97700.81;4968278;28;19918;-86
2021/11/28 15:06:51;;;;;;;;;;;;;;;3.19;89.87;97704.59;4985889;28;20012;-86
2021/11/28 15:09:17;;;;;;;;;;;;;;;3.20;89.67;97703.69;4985628;28;19925;-85
2021/11/28 15:11:42;;;;;;;;;;;;;;;3.18;89.16;97705.56;4983879;28;19918;-86
2021/11/28 15:14:15;;;;;;;;;;;;;;;3.05;88.79;97700.88;4967583;28;19932;-84